createdAt,value
2022-08-25T08:06:30.013Z,27.70
2022-08-25T08:08:31.477Z,27.90
2022-08-25T08:11:05.619Z,27.90
2022-08-25T08:13:41.384Z,28.30
2022-08-25T08:16:13.461Z,28.50
2022-08-25T08:18:42.638Z,29.10
2022-08-25T08:21:41.530Z,29.00
2022-08-25T08:24:19.564Z,29.90
2022-08-25T08:26:58.914Z,30.30
2022-08-25T08:29:26.450Z,29.60
2022-08-25T08:31:53.522Z,30.30
2022-08-25T08:34:24.758Z,30.60
2022-08-25T08:36:52.530Z,30.50
2022-08-25T08:39:19.387Z,30.20
2022-08-25T08:42:23.955Z,30.30
2022-08-25T08:45:15.465Z,31.20
2022-08-25T08:47:42.317Z,31.40
2022-08-25T08:50:40.398Z,31.30
2022-08-25T08:53:21.954Z,30.90
2022-08-25T08:55:52.976Z,31.20
2022-08-25T08:58:39.971Z,31.30
2022-08-25T09:01:10.517Z,30.40
2022-08-25T09:03:39.730Z,30.40
2022-08-25T09:06:44.494Z,30.90
2022-08-25T09:09:20.663Z,30.60
2022-08-25T09:12:01.822Z,30.80
2022-08-25T09:14:53.706Z,31.60
2022-08-25T09:17:54.275Z,32.10
2022-08-25T09:21:10.633Z,32.40
2022-08-25T09:23:54.973Z,32.20
2022-08-25T09:26:27.380Z,31.80
2022-08-25T09:29:16.298Z,31.50
2022-08-25T09:31:43.559Z,31.40
2022-08-25T09:34:22.228Z,32.50
2022-08-25T09:36:52.908Z,32.00
2022-08-25T09:39:21.487Z,31.80
2022-08-25T09:42:00.150Z,32.40
2022-08-25T09:44:39.585Z,32.20
2022-08-25T09:47:13.854Z,33.10
2022-08-25T09:49:44.038Z,33.10
2022-08-25T09:52:31.698Z,33.20
2022-08-25T09:55:39.437Z,33.70
2022-08-25T09:58:24.156Z,32.70
2022-08-25T10:01:03.995Z,32.80
2022-08-25T10:03:32.350Z,32.80
2022-08-25T10:06:14.909Z,33.10
2022-08-25T10:08:44.860Z,33.40
2022-08-25T10:11:15.415Z,33.70
2022-08-25T10:13:53.154Z,33.50
2022-08-25T10:16:33.667Z,32.70
2022-08-25T10:19:10.611Z,33.10
2022-08-25T10:21:39.889Z,33.30
2022-08-25T10:24:08.560Z,33.70
2022-08-25T10:27:03.429Z,33.90
2022-08-25T10:29:57.941Z,34.60
2022-08-25T10:32:47.711Z,33.60
2022-08-25T10:35:26.433Z,33.60
2022-08-25T10:38:36.235Z,33.20
2022-08-25T10:41:44.942Z,33.20
2022-08-25T10:44:47.212Z,33.20
2022-08-25T10:47:48.309Z,33.20
2022-08-25T10:50:24.381Z,33.50
2022-08-25T10:53:04.785Z,33.50
2022-08-25T10:56:07.347Z,32.50
2022-08-25T10:58:43.370Z,31.80
2022-08-25T11:01:28.833Z,32.50
2022-08-25T11:04:08.087Z,32.20
2022-08-25T11:06:47.568Z,32.50
2022-08-25T11:09:21.416Z,31.90
2022-08-25T11:12:13.618Z,32.50
2022-08-25T11:14:50.840Z,32.60
2022-08-25T11:17:24.900Z,32.50
2022-08-25T11:20:01.619Z,32.50
2022-08-25T11:22:40.774Z,32.70
2022-08-25T11:25:35.087Z,32.70
2022-08-25T11:28:20.818Z,32.90
2022-08-25T11:30:51.407Z,33.00
2022-08-25T11:33:19.965Z,33.90
2022-08-25T11:35:51.154Z,33.40
2022-08-25T11:38:24.995Z,33.70
2022-08-25T11:41:30.455Z,33.70
2022-08-25T11:44:32.236Z,33.60
2022-08-25T11:47:02.133Z,34.20
2022-08-25T11:50:06.331Z,34.10
2022-08-25T11:52:33.142Z,34.80
2022-08-25T11:55:15.703Z,34.80
2022-08-25T11:57:44.576Z,33.60
2022-08-25T12:00:17.482Z,32.80
2022-08-25T12:02:47.805Z,33.40
2022-08-25T12:05:21.995Z,34.40
2022-08-25T12:08:22.395Z,35.20
2022-08-25T12:11:07.196Z,35.90
2022-08-25T12:13:51.324Z,35.40
2022-08-25T12:16:36.775Z,35.10
2022-08-25T12:19:36.249Z,35.10
2022-08-25T12:22:03.342Z,35.60
2022-08-25T12:24:48.129Z,35.40
2022-08-25T12:27:28.144Z,34.80
2022-08-25T12:30:21.260Z,34.40
2022-08-25T12:33:20.472Z,34.50
2022-08-25T12:36:06.937Z,34.90
2022-08-25T12:38:42.492Z,35.20
2022-08-25T12:41:27.484Z,35.20
2022-08-25T12:44:32.175Z,35.50
2022-08-25T12:47:14.279Z,33.80
2022-08-25T12:49:41.400Z,32.90
2022-08-25T12:52:21.042Z,33.40
2022-08-25T12:54:50.345Z,34.10
2022-08-25T12:57:43.404Z,35.10
2022-08-25T13:03:06.129Z,33.70
2022-08-25T13:05:48.389Z,34.00
2022-08-25T13:08:37.093Z,34.40
2022-08-25T13:11:17.372Z,34.80
2022-08-25T13:13:51.576Z,35.10
2022-08-25T13:16:25.592Z,35.60
2022-08-25T13:18:59.182Z,35.80
2022-08-25T13:21:37.742Z,35.70
2022-08-25T13:24:09.250Z,35.90
2022-08-25T13:26:48.159Z,36.30
2022-08-25T13:29:21.374Z,36.40
2022-08-25T13:31:59.322Z,36.30
2022-08-25T13:34:34.741Z,36.10
2022-08-25T13:37:31.229Z,36.20
2022-08-25T13:40:10.236Z,35.60
2022-08-25T13:42:42.418Z,36.30
2022-08-25T13:45:21.507Z,36.60
2022-08-25T13:47:55.908Z,36.70
2022-08-25T13:50:26.831Z,36.00
2022-08-25T13:53:05.890Z,36.40
2022-08-25T13:55:51.018Z,36.30
2022-08-25T13:58:45.651Z,36.90
2022-08-25T14:01:46.414Z,37.50
2022-08-25T14:04:32.651Z,37.50
2022-08-25T14:07:26.688Z,37.80
2022-08-25T14:10:30.360Z,38.20
2022-08-25T14:13:11.268Z,38.10
2022-08-25T14:15:42.456Z,37.00
2022-08-25T14:18:27.232Z,37.40
2022-08-25T14:20:55.874Z,37.40
2022-08-25T14:23:27.093Z,35.50
2022-08-25T14:25:57.469Z,35.00
2022-08-25T14:28:29.024Z,34.40
2022-08-25T14:31:08.345Z,34.70
2022-08-25T14:33:42.929Z,34.60
2022-08-25T14:36:10.420Z,34.40
2022-08-25T14:38:54.517Z,33.50
2022-08-25T14:41:25.862Z,33.00
2022-08-25T14:44:15.399Z,32.60
2022-08-25T14:46:59.539Z,32.40
2022-08-25T14:49:55.866Z,32.30
2022-08-25T14:56:16.668Z,31.90
2022-08-25T14:59:28.432Z,32.30
2022-08-25T15:02:29.627Z,32.20
2022-08-25T15:05:08.359Z,32.50
2022-08-25T15:08:10.136Z,32.60
2022-08-25T15:10:40.359Z,32.10
2022-08-25T15:13:37.605Z,31.90
2022-08-25T15:16:35.222Z,31.40
2022-08-25T15:19:54.347Z,30.70
2022-08-25T15:23:14.732Z,30.30
2022-08-25T15:26:24.210Z,30.90
2022-08-25T15:29:23.380Z,31.50
2022-08-25T15:32:32.993Z,31.50
2022-08-25T15:47:13.014Z,29.60
2022-08-25T15:50:42.626Z,30.30
2022-08-25T15:54:01.837Z,31.00
2022-08-25T15:56:28.814Z,30.70
